createdAt,value
2018-08-27T00:01:40.372Z,3.93
2018-08-27T00:04:08.260Z,3.80
2018-08-27T00:06:36.068Z,3.70
2018-08-27T00:09:05.520Z,4.33
2018-08-27T00:11:33.403Z,3.50
2018-08-27T00:14:01.303Z,3.13
2018-08-27T00:16:40.943Z,3.73
2018-08-27T00:19:09.754Z,3.40
2018-08-27T00:21:37.657Z,3.47
2018-08-27T00:24:05.556Z,3.03
2018-08-27T00:26:33.442Z,2.87
2018-08-27T00:29:01.337Z,3.00
2018-08-27T00:31:29.245Z,3.00
2018-08-27T00:33:57.244Z,3.40
2018-08-27T00:36:25.160Z,3.40
2018-08-27T00:38:53.050Z,3.20
2018-08-27T00:41:21.052Z,3.03
2018-08-27T00:43:48.936Z,3.27
2018-08-27T00:46:16.837Z,2.47
2018-08-27T00:48:44.680Z,2.90
2018-08-27T00:51:12.641Z,2.97
2018-08-27T00:53:40.563Z,2.80
2018-08-27T00:56:08.608Z,2.80
2018-08-27T00:58:36.536Z,2.73
2018-08-27T01:01:04.438Z,3.10
2018-08-27T01:03:32.406Z,2.60
2018-08-27T01:06:00.313Z,2.57
2018-08-27T01:08:28.233Z,2.50
2018-08-27T01:10:56.171Z,2.60
2018-08-27T01:13:24.066Z,2.40
2018-08-27T01:15:51.957Z,2.37
2018-08-27T01:18:19.846Z,2.30
2018-08-27T01:20:47.636Z,2.67
2018-08-27T01:23:15.619Z,2.90
2018-08-27T01:25:43.501Z,2.90
2018-08-27T01:28:11.344Z,2.37
2018-08-27T01:30:39.250Z,2.57
2018-08-27T01:33:07.112Z,2.60
2018-08-27T01:35:35.047Z,2.60
2018-08-27T01:38:02.958Z,2.63
2018-08-27T01:40:30.882Z,2.70
2018-08-27T01:42:58.730Z,2.77
2018-08-27T01:45:26.673Z,3.03
2018-08-27T01:47:54.562Z,2.40
2018-08-27T01:50:22.477Z,2.73
2018-08-27T01:52:50.429Z,2.70
2018-08-27T01:55:18.328Z,2.97
2018-08-27T01:57:46.181Z,2.40
2018-08-27T02:00:14.022Z,2.80
2018-08-27T02:02:41.921Z,2.67
2018-08-27T02:05:09.844Z,2.57
2018-08-27T02:07:38.117Z,2.80
2018-08-27T02:10:05.980Z,2.93
2018-08-27T02:12:33.888Z,2.30
2018-08-27T02:15:01.818Z,3.20
2018-08-27T02:17:29.721Z,2.53
2018-08-27T02:19:57.574Z,2.77
2018-08-27T02:22:25.425Z,2.43
2018-08-27T02:24:53.424Z,2.37
2018-08-27T02:27:21.352Z,3.47
2018-08-27T02:29:49.277Z,3.23
2018-08-27T02:32:17.171Z,3.00
2018-08-27T02:34:45.014Z,2.50
2018-08-27T02:37:12.906Z,2.33
2018-08-27T02:39:40.749Z,3.00
2018-08-27T02:42:08.650Z,2.57
2018-08-27T02:44:36.544Z,2.33
2018-08-27T02:47:04.614Z,2.40
2018-08-27T02:49:32.561Z,2.77
2018-08-27T02:52:00.502Z,2.30
2018-08-27T02:54:28.431Z,2.23
2018-08-27T02:56:56.325Z,2.47
2018-08-27T02:59:24.244Z,2.23
2018-08-27T03:01:53.025Z,2.60
2018-08-27T03:04:22.077Z,2.27
2018-08-27T03:06:49.943Z,2.23
2018-08-27T03:09:17.854Z,2.27
2018-08-27T03:11:45.754Z,2.20
2018-08-27T03:14:14.678Z,2.47
2018-08-27T03:16:42.549Z,2.20
2018-08-27T03:19:10.414Z,2.10
2018-08-27T03:21:38.270Z,2.60
2018-08-27T03:24:06.145Z,2.73
2018-08-27T03:26:33.997Z,2.20
2018-08-27T03:29:01.959Z,2.47
2018-08-27T03:31:29.792Z,2.60
2018-08-27T03:33:57.661Z,2.60
2018-08-27T03:36:25.560Z,2.67
2018-08-27T03:38:53.431Z,2.33
2018-08-27T03:41:21.352Z,2.70
2018-08-27T03:43:49.278Z,2.27
2018-08-27T03:46:17.140Z,2.43
2018-08-27T03:48:44.990Z,2.43
2018-08-27T03:51:12.825Z,2.30
2018-08-27T03:53:40.725Z,2.77
2018-08-27T03:56:08.676Z,2.50
2018-08-27T03:58:36.566Z,2.90
2018-08-27T04:01:04.462Z,2.47
2018-08-27T04:03:32.384Z,2.60
2018-08-27T04:06:00.365Z,2.53
2018-08-27T04:08:28.290Z,2.60
2018-08-27T04:10:56.202Z,2.60
2018-08-27T04:13:24.097Z,2.67
2018-08-27T04:15:52.924Z,2.43
2018-08-27T04:18:20.886Z,2.80
2018-08-27T04:20:48.790Z,2.50
2018-08-27T04:23:16.673Z,2.70
2018-08-27T04:25:44.603Z,3.00
2018-08-27T04:28:12.554Z,2.73
2018-08-27T04:30:40.477Z,2.50
2018-08-27T04:33:08.318Z,2.70
2018-08-27T04:35:36.184Z,2.80
2018-08-27T04:38:04.112Z,2.70
2018-08-27T04:40:32.958Z,2.57
2018-08-27T04:43:00.761Z,2.40
2018-08-27T04:45:28.625Z,3.03
2018-08-27T04:47:56.515Z,2.60
2018-08-27T04:50:24.438Z,2.57
2018-08-27T04:52:52.318Z,2.70
2018-08-27T04:55:20.202Z,2.83
2018-08-27T04:57:48.074Z,3.03
2018-08-27T05:00:22.889Z,2.87
2018-08-27T05:02:50.750Z,2.70
2018-08-27T05:05:18.710Z,2.80
2018-08-27T05:07:46.580Z,2.70
2018-08-27T05:10:14.421Z,2.37
2018-08-27T05:12:42.326Z,2.73
2018-08-27T05:15:10.199Z,2.80
2018-08-27T05:17:38.055Z,2.80
2018-08-27T05:20:05.942Z,2.90
2018-08-27T05:22:33.899Z,2.63
2018-08-27T05:25:01.758Z,3.00
2018-08-27T05:27:29.649Z,2.60
2018-08-27T05:29:57.629Z,2.90
2018-08-27T05:32:25.524Z,2.80
2018-08-27T05:34:53.354Z,2.60
2018-08-27T05:37:21.286Z,2.70
2018-08-27T05:39:49.097Z,2.50
2018-08-27T05:42:17.041Z,3.00
2018-08-27T05:44:44.848Z,3.20
2018-08-27T05:47:12.806Z,2.67
2018-08-27T05:49:41.799Z,3.00
2018-08-27T05:52:10.848Z,2.80
2018-08-27T05:54:38.814Z,2.90
2018-08-27T05:57:06.948Z,2.50
2018-08-27T05:59:34.858Z,2.60
2018-08-27T06:02:02.930Z,2.27
2018-08-27T06:04:30.701Z,2.27
2018-08-27T06:06:58.972Z,2.50
2018-08-27T06:09:26.829Z,2.70
2018-08-27T06:11:54.673Z,2.40
2018-08-27T06:14:22.545Z,2.83
2018-08-27T06:16:50.422Z,2.70
2018-08-27T06:19:18.329Z,2.67
2018-08-27T06:21:46.282Z,2.80
2018-08-27T06:24:14.150Z,3.00
2018-08-27T06:26:42.014Z,2.50
2018-08-27T06:29:09.861Z,2.40
2018-08-27T06:31:37.756Z,3.07
2018-08-27T06:34:05.648Z,2.77
2018-08-27T06:36:33.534Z,2.37
2018-08-27T06:39:01.493Z,2.37
2018-08-27T06:41:29.475Z,2.40
2018-08-27T06:43:57.426Z,2.40
2018-08-27T06:46:25.327Z,2.63
2018-08-27T06:48:53.187Z,2.37
2018-08-27T06:51:21.176Z,2.40
2018-08-27T06:53:49.108Z,2.20
2018-08-27T06:56:17.022Z,2.30
2018-08-27T06:58:44.923Z,2.47
2018-08-27T07:01:12.873Z,2.80
2018-08-27T07:03:40.709Z,3.03
2018-08-27T07:06:08.574Z,2.70
2018-08-27T07:08:36.443Z,3.00
2018-08-27T07:11:04.295Z,2.60
2018-08-27T07:13:32.174Z,3.20
2018-08-27T07:16:00.017Z,2.90
2018-08-27T07:18:27.966Z,3.10
2018-08-27T07:20:55.904Z,3.00
2018-08-27T07:23:23.740Z,2.70
2018-08-27T07:25:51.671Z,2.50
2018-08-27T07:28:19.613Z,2.40
2018-08-27T07:30:47.491Z,2.40
2018-08-27T07:33:16.410Z,2.67
2018-08-27T07:35:44.337Z,2.87
2018-08-27T07:38:12.165Z,2.60
2018-08-27T07:40:40.138Z,2.50
2018-08-27T07:43:08.064Z,2.43
2018-08-27T07:45:36.030Z,2.60
2018-08-27T07:48:03.926Z,2.33
2018-08-27T07:50:31.908Z,2.30
2018-08-27T07:53:00.299Z,2.43
2018-08-27T07:55:28.161Z,2.80
2018-08-27T07:57:56.055Z,2.20
2018-08-27T08:00:24.804Z,2.30
2018-08-27T08:02:54.178Z,2.50
2018-08-27T08:05:22.206Z,2.50
2018-08-27T08:07:50.497Z,2.33
2018-08-27T08:10:19.002Z,2.13
2018-08-27T08:12:47.556Z,2.20
2018-08-27T08:15:15.436Z,2.90
2018-08-27T08:17:43.314Z,2.47
2018-08-27T08:20:11.459Z,2.53
2018-08-27T08:22:39.352Z,2.30
2018-08-27T08:25:07.330Z,2.50
2018-08-27T08:27:35.233Z,2.10
2018-08-27T08:30:03.093Z,2.07
2018-08-27T08:32:31.006Z,2.30
2018-08-27T08:34:58.971Z,2.37
2018-08-27T08:37:26.837Z,2.60
2018-08-27T08:39:54.774Z,2.33
2018-08-27T08:42:22.694Z,2.20
2018-08-27T08:44:50.569Z,2.40
2018-08-27T08:47:19.516Z,2.50
2018-08-27T08:49:47.507Z,1.93
2018-08-27T08:52:15.375Z,2.37
2018-08-27T08:54:43.541Z,2.03
2018-08-27T08:57:11.385Z,1.90
2018-08-27T08:59:39.261Z,2.13
2018-08-27T09:02:07.108Z,2.17
2018-08-27T09:04:35.030Z,2.03
2018-08-27T09:07:02.971Z,1.90
2018-08-27T09:09:30.834Z,2.20
2018-08-27T09:11:58.745Z,2.00
2018-08-27T09:14:26.652Z,2.20
2018-08-27T09:16:54.656Z,2.07
2018-08-27T09:19:22.522Z,2.20
2018-08-27T09:21:50.511Z,2.13
2018-08-27T09:24:18.474Z,1.90
2018-08-27T09:26:46.369Z,2.13
2018-08-27T09:29:14.266Z,2.60
2018-08-27T09:31:42.202Z,2.30
2018-08-27T09:34:10.080Z,2.20
2018-08-27T09:36:38.172Z,2.30
2018-08-27T09:39:06.781Z,1.97
2018-08-27T09:41:34.680Z,1.80
2018-08-27T09:44:02.583Z,2.00
2018-08-27T09:46:30.646Z,2.33
2018-08-27T09:48:58.520Z,1.90
2018-08-27T09:51:26.389Z,2.30
2018-08-27T09:53:54.349Z,2.00
2018-08-27T09:56:22.226Z,2.10
2018-08-27T09:58:50.154Z,2.00
2018-08-27T10:01:23.465Z,1.93
2018-08-27T10:03:51.561Z,1.97
2018-08-27T10:06:19.497Z,2.20
2018-08-27T10:08:47.413Z,2.10
2018-08-27T10:11:15.258Z,2.47
2018-08-27T10:13:43.156Z,2.33
2018-08-27T10:16:11.001Z,2.17
2018-08-27T10:18:38.866Z,2.50
2018-08-27T10:21:06.830Z,2.17
2018-08-27T10:23:35.070Z,2.40
2018-08-27T10:26:02.956Z,2.30
2018-08-27T10:28:30.877Z,2.30
2018-08-27T10:30:58.750Z,1.90
2018-08-27T10:33:26.781Z,2.20
2018-08-27T10:35:54.703Z,2.30
2018-08-27T10:38:22.617Z,2.53
2018-08-27T10:40:50.492Z,1.93
2018-08-27T10:43:18.357Z,2.40
2018-08-27T10:45:46.254Z,2.13
2018-08-27T10:48:14.179Z,2.00
2018-08-27T10:50:42.081Z,1.87
2018-08-27T10:53:09.922Z,2.20
2018-08-27T10:55:37.813Z,1.73
2018-08-27T10:58:05.698Z,2.40
2018-08-27T11:00:33.584Z,2.13
2018-08-27T11:03:01.508Z,2.00
2018-08-27T11:05:29.394Z,1.90
2018-08-27T11:07:57.308Z,2.00
2018-08-27T11:10:25.197Z,2.13
2018-08-27T11:12:53.056Z,2.00
2018-08-27T11:15:21.043Z,2.00
2018-08-27T11:17:49.225Z,1.83
2018-08-27T11:20:17.240Z,1.90
2018-08-27T11:22:45.037Z,1.80
2018-08-27T11:25:12.917Z,1.90
2018-08-27T11:27:40.797Z,2.00
2018-08-27T11:30:08.968Z,1.93
2018-08-27T11:32:37.002Z,2.23
2018-08-27T11:35:04.958Z,2.00
2018-08-27T11:37:32.915Z,1.97
2018-08-27T11:40:00.826Z,2.13
2018-08-27T11:42:29.341Z,1.90
2018-08-27T11:44:57.182Z,1.90
2018-08-27T11:47:25.033Z,1.90
2018-08-27T11:49:52.961Z,2.17
2018-08-27T11:52:20.862Z,2.00
2018-08-27T11:54:48.774Z,2.00
2018-08-27T11:57:16.617Z,2.20
2018-08-27T11:59:45.563Z,2.60
2018-08-27T12:02:13.565Z,2.63
2018-08-27T12:04:41.490Z,2.40
2018-08-27T12:07:09.434Z,2.40
2018-08-27T12:09:37.340Z,3.13
2018-08-27T12:12:05.266Z,3.57
2018-08-27T12:14:33.095Z,4.20
2018-08-27T12:17:00.989Z,5.47
2018-08-27T12:19:28.882Z,5.90
2018-08-27T12:21:56.804Z,5.30
2018-08-27T12:24:24.715Z,5.13
2018-08-27T12:26:52.551Z,5.50
2018-08-27T12:29:20.502Z,4.80
2018-08-27T12:31:49.334Z,4.50
2018-08-27T12:34:17.205Z,5.10
2018-08-27T12:36:45.130Z,5.80
2018-08-27T12:39:12.940Z,6.53
2018-08-27T12:41:40.883Z,6.50
2018-08-27T12:44:08.741Z,6.37
2018-08-27T12:46:36.657Z,5.57
2018-08-27T12:49:04.563Z,5.57
2018-08-27T12:51:32.452Z,5.13
2018-08-27T12:54:00.471Z,3.93
2018-08-27T12:56:28.340Z,3.30
2018-08-27T12:58:56.378Z,3.27
2018-08-27T13:01:24.217Z,4.00
2018-08-27T13:03:52.248Z,3.87
2018-08-27T13:06:20.202Z,3.60
2018-08-27T13:08:48.147Z,4.90
2018-08-27T13:11:16.028Z,4.40
2018-08-27T13:13:43.869Z,5.50
2018-08-27T13:16:11.708Z,5.73
2018-08-27T13:18:39.644Z,5.63
2018-08-27T13:21:13.116Z,5.83
2018-08-27T13:23:41.051Z,5.43
2018-08-27T13:26:08.947Z,5.30
2018-08-27T13:28:36.756Z,6.07
2018-08-27T13:31:04.676Z,5.50
2018-08-27T13:33:32.521Z,5.40
2018-08-27T13:36:00.393Z,3.30
2018-08-27T13:38:28.265Z,3.17
2018-08-27T13:40:56.186Z,2.60
2018-08-27T13:43:24.116Z,4.90
2018-08-27T13:45:51.974Z,5.50
2018-08-27T13:48:19.814Z,3.53
2018-08-27T13:50:47.680Z,3.00
2018-08-27T13:53:15.601Z,3.00
2018-08-27T13:55:43.486Z,3.23
2018-08-27T13:58:11.360Z,2.20
2018-08-27T14:00:39.286Z,2.20
2018-08-27T14:03:07.095Z,1.90
2018-08-27T14:05:35.684Z,2.33
2018-08-27T14:08:03.572Z,2.40
2018-08-27T14:10:31.456Z,2.20
2018-08-27T14:12:59.280Z,2.50
2018-08-27T14:15:27.265Z,2.40
2018-08-27T14:17:56.033Z,2.80
2018-08-27T14:20:24.981Z,2.50
2018-08-27T14:22:52.792Z,2.30
2018-08-27T14:25:20.662Z,2.37
2018-08-27T14:27:48.675Z,2.47
2018-08-27T14:30:16.621Z,2.23
2018-08-27T14:32:45.543Z,2.40
2018-08-27T14:35:13.356Z,2.33
2018-08-27T14:37:41.272Z,2.13
2018-08-27T14:40:09.577Z,1.97
2018-08-27T14:42:37.530Z,2.10
2018-08-27T14:45:05.669Z,2.60
2018-08-27T14:47:33.428Z,2.50
2018-08-27T14:50:01.308Z,2.07
2018-08-27T14:52:29.160Z,2.37
2018-08-27T14:54:57.031Z,2.03
2018-08-27T14:57:24.901Z,2.33
2018-08-27T14:59:52.800Z,2.20
2018-08-27T15:02:20.641Z,2.10
2018-08-27T15:04:48.508Z,2.30
2018-08-27T15:07:16.373Z,2.00
2018-08-27T15:09:44.231Z,2.30
2018-08-27T15:12:12.081Z,2.00
2018-08-27T15:14:39.977Z,2.43
2018-08-27T15:17:07.865Z,2.20
2018-08-27T15:19:35.697Z,2.10
2018-08-27T15:22:03.520Z,2.20
2018-08-27T15:24:31.481Z,2.40
2018-08-27T15:26:59.352Z,2.20
2018-08-27T15:29:27.233Z,2.10
2018-08-27T15:31:56.069Z,2.60
2018-08-27T15:34:23.892Z,2.13
2018-08-27T15:36:52.777Z,2.10
2018-08-27T15:39:20.676Z,1.80
2018-08-27T15:41:49.567Z,1.90
2018-08-27T15:44:17.510Z,2.10
2018-08-27T15:46:45.453Z,2.40
2018-08-27T15:49:13.622Z,2.43
2018-08-27T15:51:41.888Z,2.23
2018-08-27T15:54:10.809Z,2.20
2018-08-27T15:56:39.268Z,1.97
2018-08-27T15:59:07.109Z,2.30
2018-08-27T16:01:34.964Z,2.17
2018-08-27T16:04:03.099Z,2.20
2018-08-27T16:06:30.928Z,2.10
2018-08-27T16:08:59.013Z,2.10
2018-08-27T16:11:26.939Z,2.10
2018-08-27T16:13:54.805Z,2.33
2018-08-27T16:16:22.669Z,2.27
2018-08-27T16:18:50.553Z,2.50
2018-08-27T16:21:18.468Z,2.00
2018-08-27T16:23:46.348Z,2.30
2018-08-27T16:26:15.252Z,2.00
2018-08-27T16:28:43.141Z,2.23
2018-08-27T16:31:10.980Z,2.00
2018-08-27T16:33:38.911Z,2.03
2018-08-27T16:36:06.728Z,2.03
2018-08-27T16:38:34.611Z,2.30
2018-08-27T16:41:02.473Z,2.20
2018-08-27T16:43:30.332Z,2.27
2018-08-27T16:45:58.172Z,2.17
2018-08-27T16:48:26.334Z,2.30
2018-08-27T16:50:54.227Z,2.47
2018-08-27T16:53:22.084Z,2.37
2018-08-27T16:55:49.960Z,2.30
2018-08-27T16:58:17.816Z,2.63
2018-08-27T17:00:46.071Z,1.93
2018-08-27T17:03:14.029Z,2.60
2018-08-27T17:05:41.867Z,2.10
2018-08-27T17:08:09.736Z,2.40
2018-08-27T17:10:37.552Z,2.77
2018-08-27T17:20:07.912Z,2.37
2018-08-27T17:22:36.716Z,2.13
2018-08-27T17:25:04.620Z,2.30
2018-08-27T17:27:32.579Z,2.60
2018-08-27T17:30:00.803Z,2.30
2018-08-27T17:32:28.646Z,2.23
2018-08-27T17:34:56.472Z,2.20
2018-08-27T17:37:24.327Z,2.00
2018-08-27T17:39:52.286Z,2.40
2018-08-27T17:42:20.069Z,2.23
2018-08-27T17:44:48.032Z,2.03
2018-08-27T17:47:15.941Z,2.20
2018-08-27T17:49:43.773Z,2.33
2018-08-27T17:52:11.668Z,2.40
2018-08-27T17:54:39.508Z,2.40
2018-08-27T17:57:07.360Z,2.40
2018-08-27T17:59:35.253Z,2.63
2018-08-27T18:02:03.108Z,2.10
2018-08-27T18:04:30.996Z,2.30
2018-08-27T18:06:58.836Z,2.60
2018-08-27T18:09:26.742Z,2.33
2018-08-27T18:11:54.569Z,2.50
2018-08-27T18:14:22.457Z,2.40
2018-08-27T18:16:50.362Z,2.90
2018-08-27T18:19:18.208Z,3.10
2018-08-27T18:21:46.043Z,2.53
2018-08-27T18:24:13.897Z,3.00
2018-08-27T18:26:41.788Z,3.03
2018-08-27T18:29:09.628Z,2.67
2018-08-27T18:31:37.500Z,2.70
2018-08-27T18:34:05.416Z,2.80
2018-08-27T18:36:33.232Z,3.10
2018-08-27T18:39:01.128Z,3.03
2018-08-27T18:41:29.032Z,3.17
2018-08-27T18:43:56.885Z,3.07
2018-08-27T18:46:24.748Z,3.60
2018-08-27T18:48:52.560Z,3.40
2018-08-27T18:51:20.449Z,3.70
2018-08-27T18:53:48.410Z,4.10
2018-08-27T18:56:16.296Z,4.50
2018-08-27T18:58:44.144Z,4.30
2018-08-27T19:01:12.076Z,4.53
2018-08-27T19:03:40.087Z,4.70
2018-08-27T19:06:07.965Z,4.70
2018-08-27T19:08:35.865Z,4.20
2018-08-27T19:11:03.709Z,4.73
2018-08-27T19:13:31.741Z,5.00
2018-08-27T19:15:59.635Z,4.77
2018-08-27T19:18:27.501Z,4.93
2018-08-27T19:20:55.559Z,4.57
2018-08-27T19:23:23.600Z,4.20
2018-08-27T19:25:51.393Z,4.23
2018-08-27T19:28:19.356Z,4.10
2018-08-27T19:30:47.340Z,4.13
2018-08-27T19:33:15.235Z,3.67
2018-08-27T19:35:43.334Z,4.00
2018-08-27T19:38:12.179Z,4.30
2018-08-27T19:40:40.157Z,3.77
2018-08-27T19:43:08.151Z,3.70
2018-08-27T19:45:35.962Z,4.40
2018-08-27T19:48:03.986Z,3.80
2018-08-27T19:50:31.812Z,4.17
2018-08-27T19:52:59.685Z,3.27
2018-08-27T19:55:27.656Z,3.83
2018-08-27T19:57:55.509Z,3.93
2018-08-27T20:00:23.400Z,3.73
2018-08-27T20:02:51.241Z,4.00
2018-08-27T20:05:19.090Z,3.80
2018-08-27T20:07:46.948Z,3.87
2018-08-27T20:10:15.797Z,3.60
2018-08-27T20:12:43.633Z,4.10
2018-08-27T20:15:11.524Z,4.03
2018-08-27T20:17:39.421Z,3.60
2018-08-27T20:20:07.344Z,3.83
2018-08-27T20:22:35.224Z,3.80
2018-08-27T20:25:03.155Z,3.90
2018-08-27T20:27:31.938Z,4.50
2018-08-27T20:29:59.814Z,6.00
2018-08-27T20:32:27.701Z,5.13
2018-08-27T20:34:55.592Z,5.33
2018-08-27T20:37:23.444Z,6.10
2018-08-27T20:39:51.294Z,5.70
2018-08-27T20:42:19.191Z,6.10
2018-08-27T20:44:48.048Z,6.50
2018-08-27T20:47:15.937Z,5.90
2018-08-27T20:49:43.782Z,5.90
2018-08-27T20:52:11.730Z,6.30
2018-08-27T20:54:39.641Z,6.47
2018-08-27T20:57:09.563Z,6.30
2018-08-27T20:59:40.899Z,6.17
2018-08-27T21:02:08.772Z,6.40
2018-08-27T21:04:36.642Z,7.20
2018-08-27T21:07:04.556Z,6.93
2018-08-27T21:09:32.449Z,7.80
2018-08-27T21:12:00.289Z,7.30
2018-08-27T21:15:05.096Z,7.03
2018-08-27T21:17:33.444Z,7.10
2018-08-27T21:20:01.549Z,5.97
2018-08-27T21:22:29.428Z,6.20
2018-08-27T21:24:58.257Z,6.77
2018-08-27T21:27:26.132Z,6.40
2018-08-27T21:29:54.762Z,6.53
2018-08-27T21:32:22.564Z,6.30
2018-08-27T21:34:50.612Z,6.60
2018-08-27T21:37:18.543Z,7.10
2018-08-27T21:39:46.393Z,6.63
2018-08-27T21:42:14.256Z,6.17
2018-08-27T21:44:42.168Z,5.80
2018-08-27T21:47:09.969Z,6.20
2018-08-27T21:49:38.109Z,6.27
2018-08-27T21:52:06.089Z,6.30
2018-08-27T21:54:34.032Z,6.93
2018-08-27T21:57:02.256Z,6.47
2018-08-27T21:59:30.147Z,6.87
2018-08-27T22:01:57.979Z,6.27
2018-08-27T22:04:25.867Z,6.60
2018-08-27T22:06:53.756Z,5.93
2018-08-27T22:09:21.640Z,7.80
2018-08-27T22:11:49.484Z,6.50
2018-08-27T22:14:17.356Z,6.50
2018-08-27T22:16:45.184Z,7.30
2018-08-27T22:19:13.064Z,6.50
2018-08-27T22:21:41.004Z,6.43
2018-08-27T22:24:08.872Z,6.97
2018-08-27T22:26:36.752Z,6.60
2018-08-27T22:29:04.637Z,6.70
2018-08-27T22:31:32.629Z,6.20
2018-08-27T22:34:00.468Z,6.70
2018-08-27T22:36:28.316Z,6.90
2018-08-27T22:38:57.251Z,6.93
2018-08-27T22:41:25.092Z,6.23
2018-08-27T22:43:52.979Z,5.93
2018-08-27T22:46:20.826Z,6.17
2018-08-27T22:48:48.712Z,6.47
2018-08-27T22:51:16.572Z,6.60
2018-08-27T22:53:44.468Z,6.30
2018-08-27T22:56:12.375Z,7.17
2018-08-27T22:58:40.301Z,6.90
2018-08-27T23:01:08.132Z,6.70
2018-08-27T23:03:41.491Z,6.10
2018-08-27T23:06:09.366Z,6.20
2018-08-27T23:08:39.197Z,6.67
2018-08-27T23:11:07.129Z,6.07
2018-08-27T23:13:35.028Z,6.70
2018-08-27T23:16:06.359Z,6.40
2018-08-27T23:18:34.248Z,7.37
2018-08-27T23:21:02.129Z,6.43
2018-08-27T23:23:30.000Z,6.00
2018-08-27T23:25:57.872Z,6.37
2018-08-27T23:28:25.717Z,6.33
2018-08-27T23:30:53.632Z,5.73
2018-08-27T23:33:21.487Z,6.43
2018-08-27T23:35:49.332Z,5.93
2018-08-27T23:38:17.217Z,6.13
2018-08-27T23:40:45.048Z,6.20
2018-08-27T23:43:12.929Z,5.90
2018-08-27T23:45:40.785Z,6.33
2018-08-27T23:48:08.708Z,6.47
2018-08-27T23:50:36.521Z,6.20
2018-08-27T23:53:04.452Z,6.53
2018-08-27T23:55:32.376Z,6.97
2018-08-27T23:58:00.236Z,5.97
